Time;durP1;ratioP1;P1;durP2;ratioP2;P2;SDS_P1;SDS_P2;PMS_P1;PMS_P2;Temp;Humidity;BMP_temperature;BMP_pressure;BME280_temperature;BME280_humidity;BME280_pressure;Samples;Min_cycle;Max_cycle;Signal;HPM_P1;HPM_P2
2021/07/16 00:00:19;;;;;;;49.42;18.67;;;;;;;23.46;73.54;100524.32;5242149;55;1142908;-88
2021/07/16 00:05:26;;;;;;;44.23;19.15;;;;;;;23.37;73.98;100539.56;5233782;55;1143244;-86
2021/07/16 00:10:33;;;;;;;38.80;18.75;;;;;;;23.35;74.40;100530.31;5208891;55;1142994;-81
2021/07/16 00:15:39;;;;;;;34.50;17.62;;;;;;;23.29;74.44;100528.41;5146119;56;1142961;-80
2021/07/16 00:20:45;;;;;;;31.73;16.42;;;;;;;23.24;74.27;100543.52;5145184;56;1143189;-80
2021/07/16 00:25:51;;;;;;;63.50;22.30;;;;;;;23.25;74.57;100546.03;5153754;56;1143133;-80
2021/07/16 00:30:57;;;;;;;58.25;23.25;;;;;;;23.25;74.71;100543.33;5147608;56;1143123;-81
2021/07/16 00:36:03;;;;;;;69.15;26.70;;;;;;;23.18;74.49;100549.75;5144311;56;1143132;-84
2021/07/16 00:41:09;;;;;;;74.15;26.45;;;;;;;23.10;74.62;100556.13;5143959;56;1143503;-79
2021/07/16 00:46:15;;;;;;;71.25;26.42;;;;;;;23.07;74.61;100572.19;5151890;56;1143055;-86
2021/07/16 00:51:21;;;;;;;60.20;24.80;;;;;;;23.01;74.50;100572.17;5156829;56;1142852;-80
2021/07/16 00:56:27;;;;;;;63.10;26.82;;;;;;;22.92;74.34;100566.08;5156414;56;1142972;-78
2021/07/16 01:01:33;;;;;;;70.57;26.45;;;;;;;22.75;74.51;100563.38;5156399;56;1143099;-82
2021/07/16 01:06:39;;;;;;;61.05;27.58;;;;;;;22.63;74.52;100564.41;5156778;56;1142836;-81
2021/07/16 01:11:45;;;;;;;71.00;26.30;;;;;;;22.54;75.11;100554.81;5152728;56;1143253;-83
2021/07/16 01:16:51;;;;;;;61.63;27.52;;;;;;;22.60;75.74;100548.64;5144960;56;1142979;-81
2021/07/16 01:21:59;;;;;;;81.45;28.75;;;;;;;22.64;75.45;100545.85;5076680;56;1143065;-82
2021/07/16 01:27:05;;;;;;;69.23;30.27;;;;;;;22.55;75.36;100538.95;5153794;56;1143129;-81
2021/07/16 01:32:11;;;;;;;71.90;28.83;;;;;;;22.58;75.64;100535.04;5154401;56;1143271;-76
2021/07/16 01:37:17;;;;;;;50.03;23.83;;;;;;;22.53;75.09;100528.87;5115671;55;1143102;-80
2021/07/16 01:42:23;;;;;;;41.88;22.05;;;;;;;22.49;75.59;100527.59;5249683;55;1142873;-80
2021/07/16 01:47:29;;;;;;;51.53;23.27;;;;;;;22.43;75.48;100515.76;5251355;55;1142958;-81
2021/07/16 01:52:35;;;;;;;51.70;24.40;;;;;;;22.29;75.07;100517.20;5246766;55;1142973;-78
2021/07/16 01:57:43;;;;;;;42.15;23.07;;;;;;;22.18;75.53;100522.58;5249710;55;1143085;-78
2021/07/16 02:02:58;;;;;;;25.92;16.67;;;;;;;22.14;75.70;100535.31;5225582;55;1143097;-78
2021/07/16 02:08:13;;;;;;;26.15;14.47;;;;;;;22.08;76.44;100537.73;5258215;55;1143040;-80
2021/07/16 02:13:18;;;;;;;24.82;14.90;;;;;;;22.13;76.55;100536.34;5182706;55;1142871;-80
2021/07/16 02:18:25;;;;;;;23.45;13.72;;;;;;;22.19;76.68;100530.98;5170432;56;1143018;-79
2021/07/16 02:23:32;;;;;;;20.27;12.33;;;;;;;22.21;76.56;100532.14;5170367;56;1142967;-81
2021/07/16 02:28:38;;;;;;;20.65;11.78;;;;;;;22.21;76.45;100541.58;5170374;55;1142965;-82
2021/07/16 02:33:45;;;;;;;15.30;11.85;;;;;;;22.20;76.36;100542.09;5201301;55;1143108;-81
2021/07/16 02:38:52;;;;;;;28.65;15.70;;;;;;;22.20;76.03;100552.03;5161542;56;1142886;-80
2021/07/16 02:43:58;;;;;;;33.67;14.85;;;;;;;22.13;76.07;100541.72;5162964;56;1143003;-84
2021/07/16 02:49:04;;;;;;;31.97;14.93;;;;;;;22.09;76.42;100528.63;5116516;56;1143184;-82
2021/07/16 02:54:10;;;;;;;31.37;14.80;;;;;;;22.08;76.12;100529.66;5084910;57;1142942;-81
2021/07/16 02:59:15;;;;;;;36.38;15.70;;;;;;;21.91;75.46;100520.14;5082521;57;1142875;-86
2021/07/16 03:04:21;;;;;;;31.46;15.48;;;;;;;21.65;75.72;100534.17;5143429;56;1142938;-83
2021/07/16 03:09:27;;;;;;;32.33;16.37;;;;;;;21.50;76.45;100536.07;5129492;55;1143026;-86
2021/07/16 03:14:32;;;;;;;24.35;14.73;;;;;;;21.54;77.21;100537.88;5169182;55;1143152;-83
2021/07/16 03:19:38;;;;;;;26.68;16.67;;;;;;;21.65;77.62;100534.17;5174686;55;1143131;-82
2021/07/16 03:24:44;;;;;;;33.75;17.52;;;;;;;21.69;77.12;100520.62;5143047;56;1143169;-84
2021/07/16 03:29:50;;;;;;;36.23;15.88;;;;;;;21.64;77.24;100521.73;5152370;55;1143208;-84
2021/07/16 03:34:57;;;;;;;32.23;15.90;;;;;;;21.71;77.86;100527.17;5167125;56;1143009;-84
2021/07/16 03:40:04;;;;;;;38.35;15.40;;;;;;;21.75;77.65;100533.34;5173193;55;1143062;-83
2021/07/16 03:45:15;;;;;;;32.50;16.53;;;;;;;21.68;77.43;100537.00;5228997;55;1142915;-86
2021/07/16 03:50:23;;;;;;;50.87;18.57;;;;;;;21.65;77.50;100546.80;5160302;55;1142900;-81
2021/07/16 03:55:28;;;;;;;36.35;16.65;;;;;;;21.58;77.50;100565.55;5153650;56;1142874;-84
2021/07/16 04:00:35;;;;;;;43.33;17.45;;;;;;;21.57;77.78;100567.91;5125869;56;1142984;-84
2021/07/16 04:05:41;;;;;;;38.15;16.93;;;;;;;21.61;77.92;100569.21;5199523;55;1143178;-84
2021/07/16 04:10:48;;;;;;;30.65;16.48;;;;;;;21.60;77.80;100570.23;5139339;55;1143283;-78
2021/07/16 04:15:54;;;;;;;31.40;14.55;;;;;;;21.46;77.64;100572.95;5141239;56;1143351;-80
2021/07/16 04:20:59;;;;;;;28.98;16.07;;;;;;;21.25;77.84;100569.67;5162390;55;1142951;-85
2021/07/16 04:26:05;;;;;;;24.65;15.38;;;;;;;21.14;78.35;100582.23;5228505;55;1143018;-82
2021/07/16 04:31:11;;;;;;;27.73;15.43;;;;;;;21.22;79.29;100579.49;5229216;55;1142955;-81
2021/07/16 04:36:16;;;;;;;32.88;17.55;;;;;;;21.29;79.60;100585.78;5239112;55;1142990;-82
2021/07/16 04:41:22;;;;;;;25.97;18.02;;;;;;;21.46;80.14;100596.66;5239004;55;1142844;-84
2021/07/16 04:46:28;;;;;;;32.93;18.65;;;;;;;21.59;80.20;100596.83;5239033;55;1143050;-84
2021/07/16 04:51:36;;;;;;;26.76;18.38;;;;;;;21.72;80.07;100593.45;5238917;55;1142831;-85
2021/07/16 04:56:41;;;;;;;39.30;19.67;;;;;;;21.82;80.12;100588.62;5239170;55;1143044;-79
2021/07/16 05:01:48;;;;;;;47.43;20.32;;;;;;;21.83;79.77;100596.19;5239037;55;1143041;-83
2021/07/16 05:06:54;;;;;;;54.58;23.65;;;;;;;21.77;79.88;100593.73;5206194;55;1143045;-79
2021/07/16 05:11:59;;;;;;;48.10;20.40;;;;;;;21.72;80.43;100586.21;5239006;55;1142933;-79
2021/07/16 05:17:05;;;;;;;41.05;21.00;;;;;;;21.78;80.95;100586.48;5223394;55;1142884;-83
2021/07/16 05:22:11;;;;;;;35.83;19.45;;;;;;;21.81;80.97;100596.88;5182311;55;1143027;-83
2021/07/16 05:27:17;;;;;;;28.95;20.30;;;;;;;21.88;81.24;100611.23;5189839;55;1142900;-79
2021/07/16 05:32:22;;;;;;;36.80;21.80;;;;;;;21.97;81.44;100602.03;5170527;56;1142997;-78
2021/07/16 05:37:27;;;;;;;31.95;21.65;;;;;;;;;;5188368;55;1142954;-85
2021/07/16 05:42:33;;;;;;;40.23;21.52;;;;;;;22.05;81.82;100599.23;5202391;55;822034;-84
2021/07/16 05:47:39;;;;;;;26.86;17.84;;;;;;;22.19;81.89;100615.02;5174142;55;1140874;-81
2021/07/16 05:52:45;;;;;;;23.12;16.85;;;;;;;22.24;81.86;100613.42;5212128;55;1143078;-80
2021/07/16 05:57:50;;;;;;;26.95;18.55;;;;;;;22.25;81.82;100612.40;5190367;55;1142995;-82
2021/07/16 06:02:56;;;;;;;27.48;20.35;;;;;;;22.34;81.99;100618.48;5192084;55;1143260;-85
2021/07/16 06:08:04;;;;;;;29.70;20.15;;;;;;;22.37;82.10;100624.84;5133652;56;1143123;-82
2021/07/16 06:13:10;;;;;;;25.27;18.00;;;;;;;22.33;82.29;100618.16;5158229;55;1143354;-84
2021/07/16 06:18:15;;;;;;;27.50;20.43;;;;;;;22.40;82.70;100612.33;5225403;55;1142901;-79
2021/07/16 06:23:23;;;;;;;28.12;22.13;;;;;;;22.42;82.70;100606.23;5223723;55;1142991;-81
2021/07/16 06:28:29;;;;;;;31.70;21.15;;;;;;;22.53;83.04;100607.05;5204713;55;1143066;-80
2021/07/16 06:33:34;;;;;;;28.45;20.00;;;;;;;22.63;82.63;100614.28;5172448;55;1143295;-80
2021/07/16 06:38:42;;;;;;;42.17;24.60;;;;;;;22.63;82.93;100606.19;5195508;55;1142935;-76
2021/07/16 06:43:48;;;;;;;44.40;28.92;;;;;;;22.59;83.33;100602.75;5139991;55;1143019;-80
2021/07/16 06:48:54;;;;;;;31.65;22.80;;;;;;;22.57;83.59;100600.25;5136224;55;1143369;-79
2021/07/16 06:54:00;;;;;;;27.17;20.75;;;;;;;22.57;84.04;100597.55;5104083;55;1143194;-81
2021/07/16 06:59:08;;;;;;;28.07;20.00;;;;;;;22.56;84.51;100592.36;5132732;55;1143058;-78
2021/07/16 07:04:13;;;;;;;22.87;18.67;;;;;;;22.56;84.32;100592.36;5111030;56;1143144;-78
2021/07/16 07:09:19;;;;;;;31.47;20.23;;;;;;;22.58;84.35;100591.65;5086756;56;1142970;-78
2021/07/16 07:14:25;;;;;;;26.90;17.70;;;;;;;22.63;84.16;100599.97;5128355;56;1142875;-79
2021/07/16 07:19:31;;;;;;;23.55;18.10;;;;;;;22.75;84.37;100590.34;5123188;56;1142902;-79
2021/07/16 07:24:36;;;;;;;25.68;18.40;;;;;;;22.77;84.70;100578.33;5115135;56;1143139;-79
2021/07/16 07:29:42;;;;;;;35.83;19.45;;;;;;;22.78;84.96;100575.11;5136202;56;1142989;-82
2021/07/16 07:34:48;;;;;;;35.15;17.52;;;;;;;22.79;85.46;100574.09;5137798;56;1143229;-80
2021/07/16 07:39:54;;;;;;;17.90;16.00;;;;;;;22.78;85.55;100580.00;5157468;55;1142896;-80
2021/07/16 07:45:00;;;;;;;23.15;16.23;;;;;;;22.75;85.34;100577.69;5174095;55;1143178;-82
2021/07/16 07:50:09;;;;;;;17.70;15.60;;;;;;;22.77;85.23;100585.07;5245351;55;1143151;-82
2021/07/16 07:55:17;;;;;;;24.37;16.80;;;;;;;22.85;85.01;100590.01;5222069;55;1143242;-86
2021/07/16 08:00:27;;;;;;;20.48;15.50;;;;;;;22.94;85.28;100597.73;5159684;55;1143047;-80
2021/07/16 08:05:32;;;;;;;25.08;16.15;;;;;;;23.08;85.03;100607.58;5150689;55;1143190;-81
2021/07/16 08:10:39;;;;;;;17.90;12.58;;;;;;;23.17;84.36;100620.41;5105168;55;1143204;-82
2021/07/16 08:15:45;;;;;;;21.30;15.18;;;;;;;23.29;83.98;100622.86;5075783;56;1143199;-83
2021/07/16 08:20:50;;;;;;;22.52;13.62;;;;;;;23.39;83.53;100619.80;5156429;55;1143238;-83
2021/07/16 08:25:56;;;;;;;19.90;13.18;;;;;;;23.50;83.18;100626.00;5135591;55;1143026;-84
2021/07/16 08:31:04;;;;;;;20.68;12.75;;;;;;;23.60;83.48;100641.33;5087328;55;1143004;-84
2021/07/16 08:36:10;;;;;;;24.47;12.93;;;;;;;23.68;82.94;100643.84;5106728;56;1143128;-79
2021/07/16 08:41:15;;;;;;;16.03;11.60;;;;;;;23.74;82.82;100644.41;5214794;55;1142974;-84
2021/07/16 08:46:22;;;;;;;23.70;15.27;;;;;;;23.83;82.54;100643.17;5202855;55;1142866;-84
2021/07/16 08:51:28;;;;;;;25.40;14.18;;;;;;;23.97;82.72;100645.95;5193390;55;1143094;-80
2021/07/16 08:56:36;;;;;;;20.25;12.60;;;;;;;24.07;82.09;100651.79;5238273;55;1143106;-86
2021/07/16 09:01:47;;;;;;;16.10;12.47;;;;;;;24.15;81.79;100647.53;5238866;55;1142918;-85
2021/07/16 09:06:55;;;;;;;23.62;11.68;;;;;;;24.29;81.70;100651.96;5236451;55;1143081;-81
2021/07/16 09:12:01;;;;;;;16.05;10.85;;;;;;;24.40;81.02;100657.30;5195654;55;1143076;-82
2021/07/16 09:17:14;;;;;;;18.30;13.98;;;;;;;24.53;80.39;100662.72;5187426;55;1143578;-84
2021/07/16 09:22:23;;;;;;;14.37;12.23;;;;;;;24.56;80.15;100664.19;5171060;55;1143043;-80
2021/07/16 09:28:00;;;;;;;18.73;12.88;;;;;;;24.57;79.37;100674.80;5222375;55;1142909;-86
2021/07/16 09:33:09;;;;;;;18.75;11.88;;;;;;;24.62;79.18;100667.40;4680034;60;1143216;-80
2021/07/16 09:38:17;;;;;;;22.37;13.10;;;;;;;24.66;78.87;100670.01;4684584;60;1143106;-81
2021/07/16 09:43:26;;;;;;;20.03;12.13;;;;;;;24.69;79.14;100675.02;4689939;60;1143180;-78
2021/07/16 09:48:34;;;;;;;15.65;12.88;;;;;;;24.71;78.61;100675.64;4689861;60;1143063;-78
2021/07/16 09:53:55;;;;;;;16.35;12.63;;;;;;;24.79;78.96;100665.44;4688187;60;1143024;-80
2021/07/16 09:59:13;;;;;;;22.67;12.37;;;;;;;24.81;78.66;100667.41;4689747;60;1142961;-81
2021/07/16 10:04:33;;;;;;;20.07;12.77;;;;;;;24.82;78.24;100668.25;4690060;60;1143096;-80
2021/07/16 10:09:33;;;;;;;26.65;12.47;;;;;;;24.83;77.97;100669.91;4729572;60;1142970;-79
2021/07/16 10:14:40;;;;;;;23.12;14.47;;;;;;;24.83;77.73;100666.69;4768448;60;1143204;-85
2021/07/16 10:19:46;;;;;;;20.97;12.58;;;;;;;24.87;77.89;100672.52;4764858;60;1143144;-78
2021/07/16 10:24:53;;;;;;;16.82;12.10;;;;;;;24.91;77.21;100675.10;4764527;61;1143197;-76
2021/07/16 10:30:11;;;;;;;18.07;12.95;;;;;;;24.93;77.15;100677.60;4750267;60;1142829;-74
2021/07/16 10:35:38;;;;;;;15.75;12.28;;;;;;;24.91;77.24;100683.22;4758495;60;1143024;-76
2021/07/16 10:40:46;;;;;;;19.17;12.47;;;;;;;24.92;77.30;100686.23;4748502;59;1142919;-81
2021/07/16 10:45:53;;;;;;;16.12;13.25;;;;;;;24.90;77.29;100685.64;4816194;59;1143005;-82
2021/07/16 10:51:00;;;;;;;15.75;12.70;;;;;;;24.90;77.55;100693.76;4748349;60;1142913;-80
2021/07/16 10:56:10;;;;;;;21.73;14.05;;;;;;;24.97;77.99;100693.77;4715998;60;1143110;-75
2021/07/16 11:01:30;;;;;;;15.53;12.80;;;;;;;25.06;77.93;100700.11;4786094;60;1142972;-77
2021/07/16 11:06:57;;;;;;;14.80;11.53;;;;;;;25.13;77.89;100695.53;4826348;59;1143057;-74
2021/07/16 11:12:28;;;;;;;13.05;11.63;;;;;;;25.20;77.52;100692.31;4778780;59;1143077;-78
2021/07/16 11:17:37;;;;;;;16.52;12.07;;;;;;;25.19;77.58;100683.88;4825834;59;1142998;-78
2021/07/16 11:23:01;;;;;;;17.92;12.78;;;;;;;25.24;77.27;100669.69;4825535;59;1142848;-75
2021/07/16 11:28:09;;;;;;;19.15;12.65;;;;;;;25.30;77.21;100674.80;4807573;59;1143255;-77
2021/07/16 11:33:15;;;;;;;21.82;13.78;;;;;;;25.32;77.42;100663.23;4804746;59;1143250;-75
2021/07/16 11:38:21;;;;;;;20.57;12.93;;;;;;;25.36;77.87;100655.80;4811640;60;1143143;-75
2021/07/16 11:43:28;;;;;;;13.68;12.05;;;;;;;25.44;77.81;100661.02;4809752;60;1142912;-74
2021/07/16 11:48:34;;;;;;;16.12;12.60;;;;;;;25.44;77.60;100665.07;4844266;59;1142947;-77
2021/07/16 11:53:39;;;;;;;15.75;11.63;;;;;;;25.47;77.82;100666.01;4842970;59;1142920;-78
2021/07/16 11:58:51;;;;;;;16.87;13.25;;;;;;;25.54;77.58;100678.16;4850107;59;1142943;-78
2021/07/16 12:03:58;;;;;;;17.67;13.25;;;;;;;25.53;77.26;100684.62;4853855;59;1142918;-78
2021/07/16 12:09:04;;;;;;;23.98;13.58;;;;;;;25.54;77.49;100699.83;4849260;59;1142935;-80
2021/07/16 12:14:10;;;;;;;19.42;13.40;;;;;;;25.58;78.27;100701.91;4833759;60;1143120;-82
2021/07/16 12:19:16;;;;;;;18.57;13.60;;;;;;;25.64;78.24;100715.17;4845779;59;1142883;-81
2021/07/16 12:24:21;;;;;;;21.57;14.10;;;;;;;25.69;78.11;100723.98;4853247;59;1143071;-80
2021/07/16 12:29:31;;;;;;;14.70;13.20;;;;;;;25.72;78.13;100727.63;4839743;59;1143036;-78
2021/07/16 12:34:46;;;;;;;17.55;14.43;;;;;;;25.74;78.20;100724.19;4832791;59;1142877;-78
2021/07/16 12:40:01;;;;;;;22.17;13.50;;;;;;;25.72;78.42;100725.76;4838407;59;1143085;-73
2021/07/16 12:45:10;;;;;;;14.83;12.95;;;;;;;25.75;78.98;100732.11;4795973;60;1143154;-79
2021/07/16 12:50:23;;;;;;;20.27;13.50;;;;;;;25.78;78.81;100734.92;4808159;60;1143166;-77
2021/07/16 12:55:32;;;;;;;16.85;13.38;;;;;;;25.75;78.72;100738.05;4814502;59;1143066;-79
2021/07/16 13:00:40;;;;;;;22.07;14.18;;;;;;;25.75;78.51;100739.41;4877894;59;1143186;-78
2021/07/16 13:05:48;;;;;;;16.17;13.75;;;;;;;25.72;78.52;100728.98;4811642;60;1143521;-73
2021/07/16 13:11:05;;;;;;;20.97;14.30;;;;;;;25.73;78.47;100717.94;4817389;59;1143060;-77
2021/07/16 13:16:16;;;;;;;18.65;15.38;;;;;;;25.75;78.63;100695.53;4826156;59;1142949;-77
2021/07/16 13:21:23;;;;;;;23.30;16.20;;;;;;;25.72;78.19;100689.19;4797633;60;1142895;-78
2021/07/16 13:26:36;;;;;;;20.60;15.03;;;;;;;25.67;78.32;100686.80;4824804;59;1142907;-76
2021/07/16 13:31:41;;;;;;;17.40;14.40;;;;;;;25.61;78.30;100684.92;4812897;59;1142778;-76
2021/07/16 13:36:47;;;;;;;16.48;14.55;;;;;;;25.60;78.60;100682.73;4809207;59;1142970;-78
2021/07/16 13:41:52;;;;;;;24.37;15.43;;;;;;;25.63;78.79;100677.45;4839269;59;1142952;-80
2021/07/16 13:46:58;;;;;;;18.50;14.00;;;;;;;25.60;78.88;100659.71;4832044;59;1142958;-77
2021/07/16 13:52:04;;;;;;;28.75;12.85;;;;;;;25.63;78.94;100653.08;4867812;58;1142835;-79
2021/07/16 13:57:10;;;;;;;13.53;12.10;;;;;;;25.67;78.73;100644.80;4844700;60;1143072;-75
2021/07/16 14:02:15;;;;;;;16.97;12.83;;;;;;;25.76;78.74;100637.59;4840103;60;1143240;-81
2021/07/16 14:07:21;;;;;;;14.98;11.15;;;;;;;25.80;77.95;100640.19;4833298;59;1143163;-76
2021/07/16 14:12:27;;;;;;;15.40;11.97;;;;;;;25.81;77.45;100639.14;4872993;59;1143039;-79
2021/07/16 14:17:33;;;;;;;14.87;10.15;;;;;;;25.82;76.64;100641.30;4892867;59;1142984;-78
2021/07/16 14:22:39;;;;;;;14.43;10.63;;;;;;;25.81;76.38;100642.38;4895483;59;1142928;-81
2021/07/16 14:27:46;;;;;;;12.75;9.95;;;;;;;25.81;76.32;100631.02;4894629;59;1142967;-75
2021/07/16 14:32:52;;;;;;;16.82;12.23;;;;;;;25.76;76.01;100641.66;4893826;59;1141199;-77
2021/07/16 14:37:58;;;;;;;109.83;71.22;;;;;;;25.68;76.28;100649.18;4891396;59;1143420;-78
2021/07/16 14:43:05;;;;;;;117.30;102.67;;;;;;;25.67;76.38;100644.28;4885289;59;1145001;-73
2021/07/16 14:48:11;;;;;;;32.58;27.75;;;;;;;25.67;76.38;100644.28;4885216;59;1147128;-80
2021/07/16 14:53:16;;;;;;;17.15;10.20;;;;;;;25.66;76.43;100641.81;4885432;59;1143292;-78
2021/07/16 14:58:22;;;;;;;13.08;9.70;;;;;;;25.69;76.25;100637.30;4886068;59;1143232;-78
2021/07/16 15:03:28;;;;;;;11.18;9.90;;;;;;;25.73;76.06;100634.48;4886130;59;1141263;-73
2021/07/16 15:08:34;;;;;;;13.72;9.70;;;;;;;25.73;75.76;100630.41;4885842;58;1141037;-76
2021/07/16 15:13:40;;;;;;;14.13;9.10;;;;;;;25.72;75.79;100627.39;4836027;59;1141043;-80
2021/07/16 15:18:45;;;;;;;13.62;10.55;;;;;;;25.75;75.85;100625.09;4830451;59;1141073;-78
2021/07/16 15:23:51;;;;;;;20.20;14.65;;;;;;;25.75;75.82;100621.03;4831441;59;1143100;-75
2021/07/16 15:28:56;;;;;;;12.13;10.15;;;;;;;25.78;75.71;100627.37;4840867;59;1143074;-77
2021/07/16 15:34:02;;;;;;;7.15;6.45;;;;;;;25.82;75.77;100640.78;4838779;60;1142825;-76
2021/07/16 15:39:08;;;;;;;9.55;3.98;;;;;;;25.75;75.34;100669.80;4828669;59;1138767;-79
2021/07/16 15:44:15;;;;;;;11.45;4.53;;;;;;;25.33;69.61;100678.44;4828698;60;1139071;-77
2021/07/16 15:49:22;;;;;;;7.12;4.70;;;;;;;24.87;71.17;100686.05;4830916;59;1141297;-81
2021/07/16 15:54:27;;;;;;;13.30;5.17;;;;;;;24.52;72.77;100705.16;4831769;58;1139199;-79
2021/07/16 15:59:33;;;;;;;10.75;4.42;;;;;;;24.23;74.25;100710.05;4830082;60;1140807;-79
2021/07/16 16:04:39;;;;;;;6.47;3.98;;;;;;;23.98;76.21;100721.92;4833113;60;1140864;-75
2021/07/16 16:09:45;;;;;;;6.57;4.77;;;;;;;23.71;76.54;100717.72;4846799;59;1138741;-79
2021/07/16 16:14:50;;;;;;;11.90;6.30;;;;;;;23.50;77.78;100712.39;4886476;59;1138742;-81
2021/07/16 16:19:56;;;;;;;14.95;5.08;;;;;;;23.25;78.46;100705.77;4877661;59;1141015;-76
2021/07/16 16:25:03;;;;;;;9.78;5.62;;;;;;;23.16;79.50;100709.14;4874530;59;1140876;-79
2021/07/16 16:30:11;;;;;;;11.63;6.80;;;;;;;23.06;79.49;100704.09;4874955;59;1138797;-76
2021/07/16 16:35:19;;;;;;;14.30;5.70;;;;;;;22.99;79.88;100707.76;4874628;59;1141134;-76
2021/07/16 16:40:25;;;;;;;8.18;5.28;;;;;;;22.98;80.09;100696.64;4875097;59;1141245;-78
2021/07/16 16:45:31;;;;;;;11.40;5.85;;;;;;;22.94;80.30;100698.05;4875031;58;1139010;-76
2021/07/16 16:50:36;;;;;;;9.58;6.80;;;;;;;22.85;80.16;100699.23;4876571;59;1140920;-80
2021/07/16 16:55:42;;;;;;;13.05;8.30;;;;;;;22.80;80.67;100699.81;4876456;59;1138911;-79
2021/07/16 17:00:48;;;;;;;16.90;9.83;;;;;;;22.82;80.96;100697.75;4876427;59;1141153;-73
2021/07/16 17:05:54;;;;;;;11.12;7.65;;;;;;;22.84;81.17;100692.17;4876141;59;1141224;-74
2021/07/16 17:11:00;;;;;;;11.95;7.47;;;;;;;22.83;81.44;100692.69;4859095;58;1141076;-74
2021/07/16 17:16:06;;;;;;;15.32;8.80;;;;;;;22.74;81.50;100683.88;4830485;60;1141139;-76
2021/07/16 17:21:11;;;;;;;13.38;7.12;;;;;;;22.74;82.00;100685.73;4829419;60;1141086;-76
2021/07/16 17:26:17;;;;;;;11.25;6.92;;;;;;;22.75;82.17;100688.24;4830697;60;1141069;-77
2021/07/16 17:31:23;;;;;;;11.77;6.37;;;;;;;22.72;82.46;100689.97;4829285;60;1141179;-73
2021/07/16 17:36:28;;;;;;;11.57;6.35;;;;;;;22.59;82.88;100688.52;4829478;60;1140843;-77
2021/07/16 17:41:34;;;;;;;9.58;7.20;;;;;;;22.45;83.73;100700.19;4829571;59;1141061;-75
2021/07/16 17:46:40;;;;;;;13.95;7.35;;;;;;;22.35;84.31;100701.00;4830124;59;1138798;-77
2021/07/16 17:51:46;;;;;;;9.23;7.70;;;;;;;22.28;84.99;100697.41;4830862;60;1140895;-76
2021/07/16 17:56:51;;;;;;;16.45;7.70;;;;;;;22.20;85.71;100693.47;4831016;60;1138848;-74
2021/07/16 18:01:57;;;;;;;9.93;6.50;;;;;;;22.10;86.52;100691.93;4829394;60;1141104;-78
2021/07/16 18:07:04;;;;;;;16.45;8.13;;;;;;;22.07;87.01;100699.03;4829969;60;1138961;-74
2021/07/16 18:12:12;;;;;;;9.45;6.97;;;;;;;22.04;86.92;100695.37;4856634;59;1141045;-74
2021/07/16 18:17:17;;;;;;;18.32;10.30;;;;;;;22.05;87.51;100702.94;4875472;59;1138974;-75
2021/07/16 18:22:23;;;;;;;15.23;9.37;;;;;;;22.04;87.54;100709.34;4874489;59;1143228;-76
2021/07/16 18:27:29;;;;;;;15.18;9.10;;;;;;;22.07;87.54;100713.85;4874665;59;1141137;-78
2021/07/16 18:32:36;;;;;;;11.08;7.78;;;;;;;22.07;87.71;100718.41;4875137;58;1140993;-77
2021/07/16 18:37:42;;;;;;;16.45;9.28;;;;;;;22.10;88.01;100705.91;4876134;57;1141041;-77
2021/07/16 18:42:48;;;;;;;13.20;8.43;;;;;;;22.06;87.67;100714.04;4875900;59;1140806;-74
2021/07/16 18:47:53;;;;;;;13.80;9.45;;;;;;;22.06;87.82;100710.83;4838617;59;1141024;-78
2021/07/16 18:52:59;;;;;;;10.63;6.05;;;;;;;22.12;87.79;100703.03;4833597;59;1140910;-77
2021/07/16 18:58:05;;;;;;;15.13;9.65;;;;;;;22.12;87.75;100703.87;4833579;59;1141155;-79
2021/07/16 19:03:12;;;;;;;14.87;8.78;;;;;;;22.10;87.44;100701.87;4833955;59;1141271;-77
2021/07/16 19:08:18;;;;;;;15.75;8.48;;;;;;;22.10;87.47;100709.95;4838902;59;1140893;-74
2021/07/16 19:13:24;;;;;;;14.78;8.30;;;;;;;22.11;87.35;100698.16;4841125;59;1140999;-75
2021/07/16 19:18:29;;;;;;;12.77;8.03;;;;;;;22.08;87.29;100691.80;4840294;60;1141074;-76
2021/07/16 19:23:35;;;;;;;10.03;7.83;;;;;;;22.07;87.27;100689.61;4835472;58;1140952;-76
2021/07/16 19:28:41;;;;;;;10.60;6.53;;;;;;;22.07;87.30;100699.03;4832917;60;1141004;-75
2021/07/16 19:33:47;;;;;;;12.70;8.50;;;;;;;22.11;87.41;100704.89;4764084;60;1141011;-76
2021/07/16 19:38:52;;;;;;;11.97;8.80;;;;;;;22.13;87.31;100709.58;4840047;60;1140804;-74
2021/07/16 19:43:59;;;;;;;16.12;8.65;;;;;;;22.18;87.08;100703.09;4840134;60;1140826;-74
2021/07/16 19:49:04;;;;;;;9.58;7.65;;;;;;;22.16;87.00;100696.22;4762449;60;1140932;-78
2021/07/16 19:54:11;;;;;;;11.95;6.97;;;;;;;22.14;86.97;100700.47;4829829;59;1138845;-77
2021/07/16 19:59:18;;;;;;;12.23;7.40;;;;;;;22.16;87.22;100709.17;4829827;60;1140987;-79
2021/07/16 20:04:24;;;;;;;14.15;7.05;;;;;;;22.07;86.96;100708.97;4829683;60;1140997;-77
2021/07/16 20:09:30;;;;;;;11.53;7.60;;;;;;;22.02;87.09;100708.19;4831408;59;1141074;-75
2021/07/16 20:14:38;;;;;;;16.02;7.60;;;;;;;22.05;87.28;100701.08;4833751;59;1141056;-77
2021/07/16 20:19:44;;;;;;;14.05;7.83;;;;;;;22.02;86.99;100705.49;4825804;60;1140912;-76
2021/07/16 20:24:51;;;;;;;12.93;8.18;;;;;;;21.98;87.23;100705.53;4837171;60;1141064;-76
2021/07/16 20:29:56;;;;;;;14.20;7.75;;;;;;;22.05;87.31;100703.77;4828278;60;1140882;-75
2021/07/16 20:35:02;;;;;;;17.00;7.70;;;;;;;22.14;87.32;100707.20;4899299;59;1141056;-81
2021/07/16 20:40:12;;;;;;;19.37;9.63;;;;;;;22.27;87.71;100719.48;4909379;59;1141104;-81
2021/07/16 20:45:18;;;;;;;18.23;9.45;;;;;;;22.36;87.26;100724.23;4910774;59;1140927;-75
2021/07/16 20:50:24;;;;;;;17.42;9.28;;;;;;;22.35;87.11;100732.82;4906213;59;1141023;-80
2021/07/16 20:55:30;;;;;;;19.37;8.30;;;;;;;22.42;87.28;100736.44;4902199;59;1141098;-73
2021/07/16 21:00:35;;;;;;;18.75;9.20;;;;;;;22.45;87.00;100731.19;4901258;59;1141146;-79
2021/07/16 21:05:42;;;;;;;14.95;7.92;;;;;;;22.46;86.77;100740.91;4900961;59;1141098;-79
2021/07/16 21:10:49;;;;;;;10.45;7.10;;;;;;;22.44;86.28;100741.64;4883516;59;1141292;-75
2021/07/16 21:15:55;;;;;;;11.75;7.20;;;;;;;22.31;85.70;100746.34;4876614;58;1140887;-73
2021/07/16 21:21:01;;;;;;;15.95;7.85;;;;;;;22.23;86.13;100744.29;4911483;58;1140876;-77
2021/07/16 21:26:07;;;;;;;15.63;7.45;;;;;;;22.19;86.58;100747.87;4770346;60;1140981;-76
2021/07/16 21:31:13;;;;;;;18.30;8.93;;;;;;;22.29;87.08;100745.73;4756697;60;1140842;-76
2021/07/16 21:36:19;;;;;;;15.23;8.45;;;;;;;22.25;86.42;100749.81;4786907;59;1140953;-76
2021/07/16 21:41:24;;;;;;;16.05;8.05;;;;;;;22.22;86.57;100749.36;4814548;59;1140837;-78
2021/07/16 21:46:30;;;;;;;17.02;8.30;;;;;;;22.07;86.03;100756.11;4829271;59;1141026;-73
2021/07/16 21:51:36;;;;;;;14.33;7.20;;;;;;;21.90;86.12;100746.02;4758122;60;1141080;-78
2021/07/16 21:56:41;;;;;;;21.95;7.85;;;;;;;21.77;86.37;100749.89;4766969;60;1140984;-74
2021/07/16 22:01:48;;;;;;;22.37;7.47;;;;;;;21.75;86.84;100753.27;4768303;60;1140994;-76
2021/07/16 22:06:54;;;;;;;18.15;7.45;;;;;;;21.78;86.96;100760.98;4768506;60;1141179;-76
2021/07/16 22:11:59;;;;;;;13.75;8.18;;;;;;;21.76;86.99;100755.78;4768790;60;1140857;-74
2021/07/16 22:17:05;;;;;;;16.20;7.92;;;;;;;21.79;87.23;100753.23;4764945;60;1140992;-74
2021/07/16 22:22:11;;;;;;;15.35;7.47;;;;;;;21.86;87.47;100754.65;4755827;60;1141057;-77
2021/07/16 22:27:17;;;;;;;21.37;8.38;;;;;;;21.88;87.20;100749.92;4838335;59;1140962;-76
2021/07/16 22:32:23;;;;;;;17.02;8.65;;;;;;;21.90;87.33;100747.37;4828182;59;1140907;-74
2021/07/16 22:37:28;;;;;;;14.28;8.55;;;;;;;21.95;87.63;100740.08;4757157;61;1141296;-78
2021/07/16 22:42:36;;;;;;;16.48;9.15;;;;;;;21.89;87.07;100745.69;4760339;60;1141133;-76
2021/07/16 22:47:43;;;;;;;17.73;9.30;;;;;;;21.81;87.03;100741.77;4724294;60;1140946;-74